Time;durP1;ratioP1;P1;durP2;ratioP2;P2;SDS_P1;SDS_P2;PMS_P1;PMS_P2;Temp;Humidity;BMP_temperature;BMP_pressure;BME280_temperature;BME280_humidity;BME280_pressure;Samples;Min_cycle;Max_cycle;Signal;HPM_P1;HPM_P2
2021/09/10 00:00:45;;;;;;;0.77;0.70;;;;;;;16.00;88.47;100484.72;4942973;29;20059;-81
2021/09/10 00:03:20;;;;;;;0.70;0.70;;;;;;;15.91;89.13;100478.41;4939154;29;20063;-81
2021/09/10 00:05:53;;;;;;;0.85;0.80;;;;;;;15.91;90.13;100489.38;4954006;28;20388;-82
2021/09/10 00:08:21;;;;;;;1.20;0.82;;;;;;;15.85;89.29;100485.97;4937932;29;20058;-82
2021/09/10 00:10:59;;;;;;;0.82;0.82;;;;;;;15.87;89.67;100491.97;4964475;28;21598;-82
2021/09/10 00:13:32;;;;;;;1.08;0.80;;;;;;;15.91;90.47;100492.94;4953648;29;20043;-81
2021/09/10 00:16:05;;;;;;;1.55;0.90;;;;;;;15.88;90.47;100484.53;4955579;29;20059;-82
2021/09/10 00:18:45;;;;;;;1.02;0.90;;;;;;;15.93;90.22;100487.13;4947186;29;20054;-82
2021/09/10 00:21:44;;;;;;;1.55;0.80;;;;;;;15.88;90.34;100485.38;4969881;28;20054;-83
2021/09/10 00:24:13;;;;;;;1.02;0.90;;;;;;;15.92;90.69;100478.09;4943955;29;20050;-82
2021/09/10 00:26:46;;;;;;;1.17;0.80;;;;;;;15.92;89.59;100480.84;4952843;29;20421;-82
2021/09/10 00:29:19;;;;;;;0.98;0.80;;;;;;;15.96;90.16;100481.81;4962115;28;20058;-81
2021/09/10 00:31:53;;;;;;;0.70;0.70;;;;;;;15.93;89.88;100473.41;4967341;28;20051;-81
2021/09/10 00:34:27;;;;;;;0.80;0.80;;;;;;;15.93;90.09;100482.44;4953915;28;20066;-81
2021/09/10 00:37:00;;;;;;;1.83;1.00;;;;;;;15.98;90.04;100484.25;4936708;29;20499;-81
2021/09/10 00:39:33;;;;;;;0.75;0.75;;;;;;;15.98;89.80;100489.72;4965182;28;20059;-81
2021/09/10 00:42:07;;;;;;;2.40;0.90;;;;;;;16.02;90.04;100481.66;4949915;29;20055;-81
2021/09/10 00:44:41;;;;;;;1.05;0.95;;;;;;;15.95;89.61;100473.88;4944087;29;20047;-82
2021/09/10 00:47:50;;;;;;;1.00;0.90;;;;;;;15.92;90.51;100478.09;4946926;29;20484;-82
2021/09/10 00:50:20;;;;;;;0.80;0.80;;;;;;;15.77;90.34;100468.38;4950734;29;20054;-81
2021/09/10 00:52:53;;;;;;;0.95;0.70;;;;;;;15.67;90.94;100465.09;4944104;29;20039;-82
2021/09/10 00:55:27;;;;;;;0.90;0.80;;;;;;;15.64;90.69;100478.31;4969924;28;20054;-82
2021/09/10 00:58:00;;;;;;;1.90;0.80;;;;;;;15.65;90.00;100476.41;4963284;28;20424;-82
2021/09/10 01:00:33;;;;;;;2.17;0.90;;;;;;;15.55;91.62;100468.47;4948310;29;20500;-82
2021/09/10 01:03:08;;;;;;;1.00;0.90;;;;;;;15.53;91.43;100471.53;4954000;29;20066;-82
2021/09/10 01:05:46;;;;;;;0.93;0.85;;;;;;;15.50;90.81;100474.13;4953953;29;20082;-82
2021/09/10 01:08:16;;;;;;;1.13;0.90;;;;;;;15.19;92.67;100440.16;4951931;29;20059;-81
2021/09/10 01:10:50;;;;;;;1.50;0.95;;;;;;;15.37;91.53;100465.69;4965822;28;20052;-81
2021/09/10 01:13:37;;;;;;;0.82;0.70;;;;;;;15.40;91.79;100469.72;4952890;29;20051;-82
2021/09/10 01:16:11;;;;;;;1.02;0.90;;;;;;;15.39;91.95;100463.41;4943513;28;20432;-81
2021/09/10 01:18:44;;;;;;;1.15;0.80;;;;;;;15.45;93.57;100480.53;4969148;28;20415;-84
2021/09/10 01:21:19;;;;;;;1.38;0.85;;;;;;;15.53;94.11;100482.50;4944945;28;20492;-82
2021/09/10 01:23:47;;;;;;;1.13;0.90;;;;;;;15.60;95.04;100479.28;4944665;28;20063;-83
2021/09/10 01:26:21;;;;;;;0.80;0.80;;;;;;;15.67;94.11;100479.63;4953503;29;20071;-82
2021/09/10 01:28:55;;;;;;;2.15;0.90;;;;;;;15.92;92.70;100491.00;4965410;28;20051;-82
2021/09/10 01:31:23;;;;;;;0.80;0.80;;;;;;;15.98;92.58;100489.72;4953138;29;20071;-81
2021/09/10 01:33:56;;;;;;;0.80;0.80;;;;;;;16.03;92.21;100488.75;4953582;28;20067;-83
2021/09/10 01:36:58;;;;;;;0.70;0.70;;;;;;;16.06;92.51;100488.94;4934823;29;20059;-81
2021/09/10 01:39:31;;;;;;;0.75;0.70;;;;;;;16.06;91.98;100477.97;4951307;29;20443;-81
2021/09/10 01:42:05;;;;;;;0.85;0.80;;;;;;;16.10;91.59;100486.34;4946732;29;20051;-81
2021/09/10 01:44:39;;;;;;;0.73;0.73;;;;;;;15.96;92.46;100459.88;4950006;29;20039;-81
2021/09/10 01:47:07;;;;;;;1.30;0.95;;;;;;;16.14;91.78;100479.91;4948905;29;20062;-82
2021/09/10 01:49:40;;;;;;;0.88;0.80;;;;;;;16.18;91.36;100480.03;4942628;29;20081;-82
2021/09/10 01:52:13;;;;;;;0.80;0.80;;;;;;;16.22;91.71;100488.47;4952862;29;20051;-82
2021/09/10 01:54:47;;;;;;;1.08;0.80;;;;;;;16.19;91.08;100478.91;4960094;28;20861;-83
2021/09/10 01:57:22;;;;;;;1.17;0.88;;;;;;;16.03;93.04;100481.31;4945577;29;20062;-81
2021/09/10 01:59:55;;;;;;;1.00;0.80;;;;;;;15.98;93.86;100485.03;4943851;29;20062;-82
2021/09/10 02:02:34;;;;;;;1.13;0.90;;;;;;;16.01;92.71;100486.34;4959764;28;20408;-81
2021/09/10 02:05:08;;;;;;;0.82;0.80;;;;;;;15.97;93.30;100491.66;4954257;29;20062;-83
2021/09/10 02:08:07;;;;;;;1.02;0.82;;;;;;;16.05;93.56;100489.25;4952089;29;20047;-83
2021/09/10 02:10:41;;;;;;;0.88;0.85;;;;;;;15.97;93.27;100491.66;4948471;29;20051;-81
2021/09/10 02:13:16;;;;;;;0.80;0.80;;;;;;;16.02;93.31;100495.38;4939581;29;20066;-82
2021/09/10 02:15:49;;;;;;;1.42;0.98;;;;;;;16.00;92.48;100492.16;4952657;29;20055;-83
2021/09/10 02:18:22;;;;;;;1.00;0.90;;;;;;;16.00;92.90;100495.69;4939348;29;20052;-83
2021/09/10 02:20:56;;;;;;;0.80;0.80;;;;;;;16.02;93.43;100498.94;4950353;29;20530;-81
2021/09/10 02:23:24;;;;;;;1.30;0.90;;;;;;;16.01;93.40;100493.78;4942868;29;20063;-82
2021/09/10 02:25:58;;;;;;;0.80;0.80;;;;;;;16.01;93.23;100489.09;4940910;29;20062;-83
2021/09/10 02:28:27;;;;;;;0.82;0.82;;;;;;;16.04;93.31;100498.63;4954969;28;20047;-83
2021/09/10 02:31:01;;;;;;;1.27;0.93;;;;;;;16.05;93.34;100494.75;4972227;28;20069;-81
2021/09/10 02:33:34;;;;;;;1.05;0.80;;;;;;;16.09;92.87;100493.78;4972509;28;20496;-82
2021/09/10 02:36:02;;;;;;;0.75;0.70;;;;;;;16.14;91.85;100490.88;4972328;28;20055;-82
2021/09/10 02:38:30;;;;;;;0.93;0.88;;;;;;;16.19;92.00;100494.59;4948510;29;20059;-82
2021/09/10 02:40:58;;;;;;;0.80;0.80;;;;;;;16.19;92.76;100505.59;4954846;29;20055;-82
2021/09/10 02:43:33;;;;;;;0.90;0.90;;;;;;;16.03;93.07;100478.59;4951933;29;20051;-82
2021/09/10 02:46:06;;;;;;;0.65;0.65;;;;;;;16.10;93.71;100500.06;4943715;28;20055;-82
2021/09/10 02:48:39;;;;;;;1.00;0.90;;;;;;;16.08;93.35;100499.59;4972771;28;20050;-82
2021/09/10 02:51:12;;;;;;;0.70;0.70;;;;;;;16.02;93.35;100511.84;4971855;28;20051;-82
2021/09/10 02:53:46;;;;;;;0.88;0.88;;;;;;;16.08;91.88;100507.81;4957471;29;20035;-81
2021/09/10 02:56:20;;;;;;;1.65;0.90;;;;;;;16.00;92.36;100492.94;4943438;28;20055;-84
2021/09/10 02:58:55;;;;;;;0.95;0.90;;;;;;;16.05;92.56;100505.72;4937070;29;20055;-82
2021/09/10 03:01:30;;;;;;;0.80;0.80;;;;;;;16.14;92.53;100510.09;4950758;29;20048;-84
2021/09/10 03:04:04;;;;;;;0.82;0.82;;;;;;;16.09;92.96;100512.19;4954803;28;20062;-82
2021/09/10 03:06:38;;;;;;;0.98;0.88;;;;;;;16.08;92.92;100516.06;4946624;29;20054;-82
2021/09/10 03:09:11;;;;;;;0.90;0.90;;;;;;;16.23;92.16;100506.56;4957054;29;20488;-82
2021/09/10 03:11:44;;;;;;;1.60;0.88;;;;;;;16.17;92.63;100516.06;4955254;29;20039;-83
2021/09/10 03:14:19;;;;;;;0.90;0.90;;;;;;;16.12;92.72;100503.31;4955919;28;20748;-82
2021/09/10 03:16:47;;;;;;;0.93;0.93;;;;;;;16.22;92.34;100500.22;4961029;28;20055;-81
2021/09/10 03:19:20;;;;;;;0.80;0.80;;;;;;;16.47;91.26;100497.81;4952259;29;20055;-82
2021/09/10 03:21:53;;;;;;;1.23;1.10;;;;;;;16.51;92.00;100504.28;4953122;29;20067;-83
2021/09/10 03:24:22;;;;;;;1.08;0.98;;;;;;;16.48;92.41;100500.22;4945931;29;20131;-82
2021/09/10 03:26:56;;;;;;;0.90;0.90;;;;;;;16.56;92.07;100511.53;4943347;29;20412;-82
2021/09/10 03:29:30;;;;;;;1.35;1.00;;;;;;;16.58;92.34;100503.78;4936543;29;20435;-82
2021/09/10 03:32:04;;;;;;;1.85;1.10;;;;;;;16.66;91.85;100501.03;4956782;28;20408;-82
2021/09/10 03:34:37;;;;;;;1.38;1.00;;;;;;;16.83;91.77;100502.94;4971785;28;20051;-82
2021/09/10 03:37:06;;;;;;;1.23;1.05;;;;;;;16.86;92.22;100498.72;4955123;29;20515;-81
2021/09/10 03:39:39;;;;;;;1.50;1.00;;;;;;;16.97;91.87;100491.78;4941887;28;20110;-82
2021/09/10 03:42:08;;;;;;;1.20;1.10;;;;;;;16.91;92.80;100492.28;4957186;28;20815;-82
2021/09/10 03:44:38;;;;;;;1.52;1.00;;;;;;;17.06;92.54;100497.25;4947232;29;20043;-81
2021/09/10 03:47:11;;;;;;;0.82;0.82;;;;;;;17.16;91.96;100488.63;4948458;29;20059;-83
2021/09/10 03:49:39;;;;;;;1.17;1.05;;;;;;;17.12;93.12;100495.94;4939240;29;20059;-82
2021/09/10 03:52:12;;;;;;;1.58;1.00;;;;;;;17.11;93.51;100488.00;4950141;28;20062;-82
2021/09/10 03:54:46;;;;;;;0.90;0.90;;;;;;;17.03;94.22;100489.66;4938065;29;20132;-82
2021/09/10 03:57:19;;;;;;;1.15;1.05;;;;;;;17.14;93.89;100487.38;4947736;29;20102;-82
2021/09/10 03:59:53;;;;;;;1.10;1.00;;;;;;;17.22;93.75;100481.03;4960853;28;20071;-81
2021/09/10 04:02:27;;;;;;;1.10;1.00;;;;;;;17.26;93.70;100475.66;4945934;29;20050;-81
2021/09/10 04:05:01;;;;;;;1.20;1.10;;;;;;;17.23;93.99;100477.13;4954500;29;20058;-82
2021/09/10 04:07:56;;;;;;;1.30;0.90;;;;;;;17.22;94.80;100482.97;4967418;28;20570;-83
2021/09/10 04:10:30;;;;;;;1.30;1.02;;;;;;;17.14;95.71;100476.38;4953890;29;20047;-83
2021/09/10 04:12:58;;;;;;;1.92;1.00;;;;;;;17.21;95.72;100486.84;4942774;29;20705;-82
2021/09/10 04:15:33;;;;;;;1.70;1.30;;;;;;;17.31;95.03;100478.25;4970306;28;20055;-81
2021/09/10 04:18:02;;;;;;;1.25;1.10;;;;;;;17.36;95.06;100480.81;4947844;29;20052;-81
2021/09/10 04:20:35;;;;;;;1.23;1.05;;;;;;;17.47;94.46;100478.50;4952765;29;20579;-82
2021/09/10 04:23:30;;;;;;;1.42;1.20;;;;;;;17.35;94.76;100479.19;4944334;29;20047;-83
2021/09/10 04:26:03;;;;;;;1.45;1.10;;;;;;;17.43;94.82;100472.84;4943704;29;20055;-82
2021/09/10 04:28:36;;;;;;;1.80;1.20;;;;;;;17.43;95.08;100467.34;4949047;29;20052;-81
2021/09/10 04:31:11;;;;;;;2.55;1.10;;;;;;;17.34;95.50;100478.41;4964942;28;20063;-86
2021/09/10 04:33:45;;;;;;;1.52;1.20;;;;;;;17.24;95.73;100467.75;4951384;29;20066;-81
2021/09/10 04:36:19;;;;;;;1.23;1.10;;;;;;;17.33;96.07;100481.44;4947156;28;20506;-82
2021/09/10 04:38:52;;;;;;;1.30;1.20;;;;;;;17.36;96.30;100479.97;4965133;28;20527;-83
2021/09/10 04:41:20;;;;;;;2.42;1.30;;;;;;;17.32;96.75;100479.84;4963209;28;20058;-81
2021/09/10 04:43:48;;;;;;;1.13;1.02;;;;;;;17.34;97.08;100478.41;4945399;29;20050;-82
2021/09/10 04:46:18;;;;;;;1.20;1.10;;;;;;;17.24;97.49;100480.69;4946341;29;20058;-81
2021/09/10 04:48:51;;;;;;;1.30;1.20;;;;;;;17.24;97.48;100487.00;4950125;29;20046;-82
2021/09/10 04:51:19;;;;;;;1.30;1.20;;;;;;;17.21;98.29;100481.34;4968645;28;20058;-82
2021/09/10 04:53:52;;;;;;;1.20;1.10;;;;;;;17.40;96.31;100476.25;4953615;28;20047;-82
2021/09/10 04:56:25;;;;;;;1.27;1.10;;;;;;;17.61;96.19;100486.50;4954458;28;20118;-81
2021/09/10 04:58:59;;;;;;;2.15;1.20;;;;;;;17.46;96.92;100494.19;4953445;29;20058;-82
2021/09/10 05:01:28;;;;;;;1.85;1.25;;;;;;;17.33;96.92;100464.94;4954006;29;20507;-82
2021/09/10 05:03:57;;;;;;;1.30;1.20;;;;;;;17.46;97.72;100493.38;4949890;28;20493;-82
2021/09/10 05:06:28;;;;;;;1.80;1.35;;;;;;;17.34;97.70;100489.41;4947168;29;20043;-81
2021/09/10 05:09:01;;;;;;;2.55;1.10;;;;;;;17.37;97.67;100490.66;4953796;29;20051;-83
2021/09/10 05:11:34;;;;;;;2.10;1.30;;;;;;;17.48;97.91;100486.41;4942999;29;20063;-84
2021/09/10 05:14:09;;;;;;;1.42;1.20;;;;;;;17.37;98.13;100490.66;4940786;29;20046;-81
2021/09/10 05:16:44;;;;;;;1.55;1.23;;;;;;;17.31;98.30;100487.28;4949493;29;20043;-82
2021/09/10 05:19:13;;;;;;;1.30;1.20;;;;;;;17.24;98.58;100491.69;4945372;29;20051;-81
2021/09/10 05:21:46;;;;;;;1.65;1.30;;;;;;;17.33;99.05;100501.53;4942094;28;20415;-83
2021/09/10 05:24:19;;;;;;;1.67;1.20;;;;;;;17.32;98.98;100501.88;4945862;28;21444;-85
2021/09/10 05:26:54;;;;;;;1.45;1.35;;;;;;;17.49;98.08;100517.47;4929163;28;20071;-84
2021/09/10 05:29:32;;;;;;;2.28;1.40;;;;;;;17.65;98.14;100515.78;4930670;29;20081;-83
2021/09/10 05:32:08;;;;;;;1.45;1.23;;;;;;;17.67;97.27;100524.50;4930675;29;20062;-83
2021/09/10 05:34:42;;;;;;;1.88;1.45;;;;;;;17.53;97.85;100523.13;4932701;29;20495;-85
2021/09/10 05:37:21;;;;;;;1.45;1.30;;;;;;;17.56;98.00;100523.25;4932674;29;20051;-84
2021/09/10 05:39:54;;;;;;;1.42;1.20;;;;;;;17.68;96.98;100517.06;4929199;29;20765;-83
2021/09/10 05:42:27;;;;;;;1.52;1.33;;;;;;;17.61;97.75;100516.78;4931085;29;20047;-84
2021/09/10 05:45:01;;;;;;;1.90;1.67;;;;;;;17.60;97.63;100512.41;4932139;29;20058;-84
2021/09/10 05:47:30;;;;;;;2.47;2.10;;;;;;;17.76;97.31;100515.38;4934341;28;20059;-82
2021/09/10 05:50:04;;;;;;;2.28;1.48;;;;;;;17.65;97.11;100517.72;4950051;28;20086;-80
2021/09/10 05:52:37;;;;;;;2.03;1.70;;;;;;;17.70;97.25;100520.28;4929662;28;20059;-84
2021/09/10 05:55:06;;;;;;;2.25;1.85;;;;;;;17.65;96.28;100523.25;4934588;29;20476;-82
2021/09/10 05:57:40;;;;;;;2.72;2.10;;;;;;;17.71;96.16;100524.66;4937180;28;20070;-82
2021/09/10 06:00:13;;;;;;;2.65;2.05;;;;;;;17.74;95.91;100537.75;4933695;29;20067;-83
2021/09/10 06:02:48;;;;;;;2.78;2.00;;;;;;;17.89;95.28;100541.88;4938557;29;20055;-85
2021/09/10 06:05:22;;;;;;;2.58;2.08;;;;;;;17.72;95.03;100548.28;4934782;29;20063;-84
2021/09/10 06:07:58;;;;;;;2.78;1.98;;;;;;;17.93;94.45;100550.31;4936959;29;20067;-83
2021/09/10 06:10:26;;;;;;;2.15;1.80;;;;;;;17.76;96.07;100554.75;4946733;29;20055;-84
2021/09/10 06:12:59;;;;;;;2.60;1.90;;;;;;;17.72;96.39;100558.47;4937850;28;20069;-82
2021/09/10 06:15:44;;;;;;;1.90;1.70;;;;;;;17.71;96.67;100551.38;4938496;29;20044;-83
2021/09/10 06:18:14;;;;;;;1.70;1.60;;;;;;;17.72;97.18;100552.97;4934785;29;20675;-81
2021/09/10 06:20:47;;;;;;;1.90;1.70;;;;;;;17.75;96.93;100544.88;4937645;28;20062;-83
2021/09/10 06:23:20;;;;;;;2.85;1.77;;;;;;;17.82;97.35;100558.91;4950488;29;20047;-83
2021/09/10 06:25:54;;;;;;;1.88;1.50;;;;;;;17.87;97.25;100554.34;4952088;28;20091;-84
2021/09/10 06:28:22;;;;;;;2.00;1.80;;;;;;;18.24;96.02;100552.69;4937024;29;20070;-82
2021/09/10 06:30:50;;;;;;;1.90;1.70;;;;;;;18.02;94.97;100554.63;4932717;28;20055;-84
2021/09/10 06:33:25;;;;;;;1.88;1.67;;;;;;;18.10;97.00;100563.94;4933045;28;20063;-82
2021/09/10 06:35:53;;;;;;;1.80;1.50;;;;;;;18.09;96.34;100558.78;4933265;29;20200;-84
2021/09/10 06:38:26;;;;;;;1.60;1.48;;;;;;;18.18;96.75;100565.84;4939784;29;20074;-82
2021/09/10 06:41:00;;;;;;;2.25;1.70;;;;;;;18.30;96.19;100584.41;4938983;28;20062;-85
2021/09/10 06:43:34;;;;;;;1.63;1.50;;;;;;;18.56;96.17;100612.91;4935954;29;20062;-85
2021/09/10 06:46:07;;;;;;;1.83;1.33;;;;;;;18.89;93.43;100625.97;4939106;29;20051;-83
2021/09/10 06:48:42;;;;;;;1.75;1.58;;;;;;;18.93;94.32;100624.97;4932790;29;20051;-83
2021/09/10 06:51:10;;;;;;;1.73;1.40;;;;;;;18.94;93.99;100620.25;4933142;28;20055;-84
2021/09/10 06:53:43;;;;;;;2.40;1.30;;;;;;;18.82;94.17;100638.34;4937989;29;20056;-84
2021/09/10 06:56:16;;;;;;;2.00;1.60;;;;;;;18.78;94.77;100650.34;4935092;29;20708;-85
2021/09/10 06:58:51;;;;;;;2.75;1.73;;;;;;;18.76;95.85;100652.66;4936027;29;20051;-83
2021/09/10 07:01:19;;;;;;;2.25;1.90;;;;;;;18.77;94.21;100646.81;4931170;29;20774;-83
2021/09/10 07:03:54;;;;;;;2.53;1.85;;;;;;;18.74;94.56;100647.47;4933793;29;20055;-81
2021/09/10 07:06:30;;;;;;;4.95;1.85;;;;;;;18.85;94.22;100634.91;4933161;29;20752;-85
2021/09/10 07:09:04;;;;;;;1.65;1.30;;;;;;;18.59;95.77;100634.28;4933231;29;20066;-84
2021/09/10 07:11:33;;;;;;;1.83;1.30;;;;;;;17.97;100.00;100637.41;4937316;29;20051;-83
2021/09/10 07:14:06;;;;;;;1.83;0.85;;;;;;;17.72;100.00;100632.78;4935648;28;20059;-85
2021/09/10 07:16:39;;;;;;;1.80;0.90;;;;;;;17.70;100.00;100624.06;4931976;29;20496;-83
2021/09/10 07:19:09;;;;;;;2.15;1.08;;;;;;;17.71;100.00;100628.44;4928277;29;20725;-83
2021/09/10 07:21:42;;;;;;;1.83;1.00;;;;;;;17.70;100.00;100630.34;4929097;29;20070;-83
2021/09/10 07:24:16;;;;;;;0.90;0.90;;;;;;;17.77;100.00;100633.44;4932433;29;20749;-83
2021/09/10 07:26:44;;;;;;;2.25;1.08;;;;;;;17.87;100.00;100621.25;4929567;28;20063;-85
2021/09/10 07:29:20;;;;;;;1.00;0.90;;;;;;;17.89;100.00;100615.41;4932055;29;20850;-85
2021/09/10 07:31:54;;;;;;;1.23;1.00;;;;;;;18.16;100.00;100614.13;4936716;29;20044;-84
2021/09/10 07:34:29;;;;;;;0.75;0.63;;;;;;;18.16;100.00;100616.88;4932743;29;21329;-82
2021/09/10 07:37:03;;;;;;;0.88;0.70;;;;;;;18.09;100.00;100613.84;4936392;29;20062;-82
2021/09/10 07:39:36;;;;;;;0.47;0.47;;;;;;;18.07;100.00;100608.69;4949415;28;20060;-83
2021/09/10 07:42:09;;;;;;;0.52;0.50;;;;;;;18.00;100.00;100611.16;4931437;29;20055;-82
2021/09/10 07:44:42;;;;;;;1.17;0.60;;;;;;;18.04;100.00;100611.31;4927795;29;20063;-83
2021/09/10 07:47:12;;;;;;;0.85;0.60;;;;;;;17.98;100.00;100616.19;4932069;29;20073;-85
2021/09/10 07:49:47;;;;;;;0.85;0.60;;;;;;;17.98;100.00;100619.75;4933195;29;20059;-83
2021/09/10 07:52:18;;;;;;;0.70;0.50;;;;;;;17.83;100.00;100623.84;4933340;29;20671;-85
2021/09/10 07:54:52;;;;;;;0.40;0.40;;;;;;;17.77;100.00;100630.69;4931356;29;20086;-83
2021/09/10 07:57:25;;;;;;;0.95;0.50;;;;;;;17.64;100.00;100629.72;4933291;29;20063;-83
2021/09/10 07:59:58;;;;;;;0.63;0.50;;;;;;;17.46;100.00;100623.47;4931367;29;20056;-84
2021/09/10 08:02:32;;;;;;;1.27;0.60;;;;;;;17.70;100.00;100635.88;4929035;29;20052;-85
2021/09/10 08:05:02;;;;;;;0.70;0.70;;;;;;;17.58;100.00;100646.75;4933165;29;20062;-84
2021/09/10 08:07:36;;;;;;;0.60;0.60;;;;;;;17.58;100.00;100655.81;4931535;29;20059;-82
2021/09/10 08:10:13;;;;;;;0.63;0.57;;;;;;;17.49;100.00;100660.53;4948808;28;20055;-82
2021/09/10 08:12:48;;;;;;;0.60;0.60;;;;;;;17.42;100.00;100658.28;4933059;28;20059;-82
2021/09/10 08:15:21;;;;;;;0.70;0.70;;;;;;;17.48;100.00;100661.66;4931882;29;20503;-82
2021/09/10 08:17:54;;;;;;;0.73;0.60;;;;;;;17.57;100.00;100678.16;4933161;28;20076;-83
2021/09/10 08:20:29;;;;;;;1.13;0.85;;;;;;;17.50;100.00;100684.16;4935103;29;20055;-84
2021/09/10 08:22:57;;;;;;;1.10;1.00;;;;;;;17.42;100.00;100687.75;4933498;29;20055;-82
2021/09/10 08:25:31;;;;;;;1.20;1.10;;;;;;;17.52;100.00;100703.91;4934408;28;20055;-83
2021/09/10 08:28:04;;;;;;;1.52;1.20;;;;;;;17.47;100.00;100712.34;4932452;29;20056;-84
2021/09/10 08:30:38;;;;;;;1.40;1.17;;;;;;;17.42;100.00;100723.50;4931204;28;20055;-86
2021/09/10 08:33:11;;;;;;;1.30;1.20;;;;;;;17.44;100.00;100724.81;4928735;29;21324;-85
2021/09/10 08:35:46;;;;;;;1.70;1.30;;;;;;;17.42;100.00;100729.00;4929094;29;20714;-84
2021/09/10 08:38:19;;;;;;;2.08;1.40;;;;;;;17.53;100.00;100730.28;4927299;29;20596;-86
2021/09/10 08:40:54;;;;;;;1.70;1.40;;;;;;;17.24;100.00;100707.00;4932068;29;20058;-84
2021/09/10 08:43:27;;;;;;;1.60;1.50;;;;;;;17.46;100.00;100729.97;4929758;29;20074;-85
2021/09/10 08:46:01;;;;;;;1.60;1.50;;;;;;;17.37;100.00;100732.72;4935215;29;20059;-84
2021/09/10 08:48:34;;;;;;;1.95;1.70;;;;;;;17.40;100.00;100736.75;4933818;29;20412;-83
2021/09/10 08:51:09;;;;;;;1.73;1.55;;;;;;;17.32;100.00;100744.69;4934299;29;20051;-84
2021/09/10 08:53:42;;;;;;;2.97;1.80;;;;;;;17.38;100.00;100747.28;4933893;29;20050;-85
2021/09/10 08:56:15;;;;;;;2.75;1.80;;;;;;;17.30;100.00;100755.22;4933770;29;20059;-83
2021/09/10 08:59:06;;;;;;;2.00;1.73;;;;;;;17.27;100.00;100747.59;4929427;29;20475;-85
2021/09/10 09:01:49;;;;;;;2.50;1.88;;;;;;;17.26;100.00;100748.75;4933361;29;20047;-84
2021/09/10 09:04:18;;;;;;;2.40;1.90;;;;;;;17.31;100.00;100753.28;4934239;29;20066;-84
2021/09/10 09:06:55;;;;;;;1.70;1.55;;;;;;;17.24;100.00;100745.50;4934155;28;20090;-84
2021/09/10 09:09:37;;;;;;;2.50;1.80;;;;;;;17.36;100.00;100744.03;4933316;29;20055;-84
2021/09/10 09:12:20;;;;;;;2.90;1.90;;;;;;;17.28;100.00;100732.72;4932646;29;20432;-83
2021/09/10 09:14:56;;;;;;;2.00;1.75;;;;;;;17.28;100.00;100742.94;4935837;29;20066;-84
2021/09/10 09:17:27;;;;;;;1.90;1.60;;;;;;;17.22;100.00;100744.22;4937659;29;20058;-85
2021/09/10 09:20:24;;;;;;;2.10;1.70;;;;;;;17.25;100.00;100757.31;4934903;29;20059;-84
2021/09/10 09:23:01;;;;;;;2.30;1.70;;;;;;;17.25;100.00;100754.56;4936851;29;20055;-84
2021/09/10 09:25:32;;;;;;;3.35;1.95;;;;;;;17.25;100.00;100746.31;4932494;29;20089;-84
2021/09/10 09:28:23;;;;;;;1.48;1.38;;;;;;;17.21;100.00;100748.09;4936379;29;20047;-83
2021/09/10 09:30:58;;;;;;;1.67;1.38;;;;;;;17.22;100.00;100752.47;4930062;29;21297;-85
2021/09/10 09:33:34;;;;;;;2.28;1.50;;;;;;;17.29;100.00;100742.59;4929888;29;20066;-84
2021/09/10 09:36:10;;;;;;;2.08;1.48;;;;;;;17.18;100.00;100735.81;4929225;29;20047;-83
2021/09/10 09:38:46;;;;;;;1.70;1.42;;;;;;;17.19;100.00;100726.41;4930379;29;20051;-83
2021/09/10 09:41:23;;;;;;;1.40;1.30;;;;;;;17.17;100.00;100723.19;4930453;29;20051;-83
2021/09/10 09:44:08;;;;;;;1.23;1.13;;;;;;;17.12;100.00;100729.66;4932933;29;20059;-83
2021/09/10 09:46:44;;;;;;;1.98;1.40;;;;;;;17.11;100.00;100732.72;4928897;29;20682;-85
2021/09/10 09:49:17;;;;;;;1.40;1.30;;;;;;;17.11;100.00;100747.28;4932903;29;20051;-83
2021/09/10 09:51:58;;;;;;;1.80;1.40;;;;;;;17.16;100.00;100744.38;4928381;29;20468;-83
2021/09/10 09:54:33;;;;;;;1.60;1.27;;;;;;;17.25;100.00;100735.31;4927017;29;20055;-83
2021/09/10 09:57:07;;;;;;;1.42;1.17;;;;;;;17.25;100.00;100757.31;4926056;29;20748;-83
2021/09/10 09:59:36;;;;;;;1.42;1.10;;;;;;;17.18;100.00;100752.31;4926950;29;20400;-85
2021/09/10 10:02:04;;;;;;;1.33;1.13;;;;;;;17.13;100.00;100746.97;4927379;29;20581;-84
2021/09/10 10:04:37;;;;;;;1.38;1.08;;;;;;;17.13;100.00;100752.47;4930664;29;20563;-83
2021/09/10 10:07:11;;;;;;;1.30;1.20;;;;;;;17.11;100.00;100751.97;4929800;29;20067;-84
2021/09/10 10:09:48;;;;;;;1.35;1.10;;;;;;;17.15;100.00;100756.53;4930582;29;20501;-83
2021/09/10 10:12:26;;;;;;;;;;;;;;;17.18;100.00;100749.56;4928369;29;20400;-83
2021/09/10 10:14:54;;;;;;;1.70;1.20;;;;;;;17.17;100.00;100748.75;4942468;28;19930;-84
2021/09/10 10:17:37;;;;;;;1.60;1.27;;;;;;;17.20;100.00;100752.00;4926156;29;20051;-83
2021/09/10 10:20:12;;;;;;;1.25;1.10;;;;;;;17.24;100.00;100753.75;4930023;29;20048;-83
2021/09/10 10:22:42;;;;;;;1.38;1.13;;;;;;;17.28;100.00;100751.97;4930766;29;20411;-84
2021/09/10 10:25:17;;;;;;;1.35;1.10;;;;;;;17.32;100.00;100750.19;4928550;29;20059;-83
2021/09/10 10:27:50;;;;;;;1.60;1.40;;;;;;;17.34;100.00;100741.63;4940046;28;20056;-83
2021/09/10 10:30:49;;;;;;;1.60;1.20;;;;;;;17.44;100.00;100743.22;4925666;29;20553;-84
2021/09/10 10:33:28;;;;;;;1.27;1.15;;;;;;;17.51;100.00;100738.03;4929890;29;20063;-84
2021/09/10 10:36:31;;;;;;;1.50;1.20;;;;;;;17.53;100.00;100744.03;4929311;29;20062;-82
2021/09/10 10:39:16;;;;;;;1.33;1.23;;;;;;;17.60;100.00;100740.81;4932808;29;20043;-83
2021/09/10 10:41:53;;;;;;;1.40;1.30;;;;;;;17.62;100.00;100739.34;4935132;29;20054;-86
2021/09/10 10:44:48;;;;;;;1.63;1.42;;;;;;;17.65;100.00;100741.44;4937885;29;20047;-84
2021/09/10 10:47:19;;;;;;;1.42;1.33;;;;;;;17.68;100.00;100742.72;4941999;29;20047;-84
2021/09/10 10:49:52;;;;;;;2.03;1.40;;;;;;;17.79;100.00;100745.97;4935415;28;20051;-82
2021/09/10 10:52:38;;;;;;;1.55;1.20;;;;;;;17.90;100.00;100743.63;4933655;29;20063;-83
2021/09/10 10:55:22;;;;;;;1.80;1.40;;;;;;;17.93;100.00;100745.78;4935343;29;20052;-83
2021/09/10 10:58:20;;;;;;;1.38;1.27;;;;;;;17.95;100.00;100751.75;4938083;29;20040;-85
2021/09/10 11:00:50;;;;;;;1.30;1.20;;;;;;;17.97;100.00;100732.97;4939584;28;20063;-83
2021/09/10 11:03:50;;;;;;;1.95;1.30;;;;;;;18.02;100.00;100735.53;4940243;29;20055;-81
2021/09/10 11:06:38;;;;;;;1.42;1.23;;;;;;;18.08;100.00;100728.72;4940797;29;20077;-83
2021/09/10 11:09:12;;;;;;;1.40;1.23;;;;;;;18.18;100.00;100730.31;4937807;29;20056;-83
2021/09/10 11:11:55;;;;;;;1.27;1.17;;;;;;;18.30;100.00;100737.88;4936202;29;20125;-81
2021/09/10 11:14:32;;;;;;;1.83;1.20;;;;;;;18.49;100.00;100740.19;4937959;29;20063;-81
2021/09/10 11:17:12;;;;;;;;;;;;;;;18.60;100.00;100746.16;4935958;29;20052;-80
2021/09/10 11:19:46;;;;;;;1.15;1.05;;;;;;;18.70;100.00;100732.78;4934971;29;19923;-81
2021/09/10 11:22:27;;;;;;;1.10;1.00;;;;;;;18.89;100.00;100736.28;4938468;28;20044;-83
2021/09/10 11:25:08;;;;;;;1.75;1.10;;;;;;;18.94;100.00;100734.13;4933478;29;20063;-81
2021/09/10 11:27:41;;;;;;;1.20;0.90;;;;;;;18.84;100.00;100731.75;4932689;28;20673;-81
2021/09/10 11:30:17;;;;;;;1.73;1.00;;;;;;;18.94;100.00;100731.38;4936794;29;20078;-81
2021/09/10 11:33:01;;;;;;;1.08;0.98;;;;;;;19.04;100.00;100732.91;4928685;29;20598;-81
2021/09/10 11:35:31;;;;;;;1.23;0.80;;;;;;;19.08;100.00;100733.06;4932201;29;20051;-81
2021/09/10 11:38:06;;;;;;;1.42;1.02;;;;;;;19.25;100.00;100726.59;4936934;29;20055;-82
2021/09/10 11:40:41;;;;;;;1.00;0.88;;;;;;;19.27;100.00;100719.59;4935376;29;20056;-82
2021/09/10 11:43:17;;;;;;;1.58;1.05;;;;;;;19.46;100.00;100727.38;4930533;29;20554;-80
2021/09/10 11:45:49;;;;;;;1.10;1.00;;;;;;;19.48;100.00;100724.28;4930137;28;20059;-81
2021/09/10 11:48:26;;;;;;;1.25;1.00;;;;;;;19.63;100.00;100720.06;4929416;29;20413;-83
2021/09/10 11:51:03;;;;;;;0.77;0.70;;;;;;;19.60;100.00;100718.00;4930661;29;20058;-82
2021/09/10 11:53:34;;;;;;;0.82;0.77;;;;;;;19.61;100.00;100714.91;4940187;29;20071;-80
2021/09/10 11:56:09;;;;;;;0.70;0.70;;;;;;;19.71;100.00;100710.91;4932616;29;20051;-82